Terminal Aerodrome Forecast
Issued by NWS

Home | Current Version | Previous Version | Text Only | Print | Product List | Glossary On
Versions: 1 2 3 4 5 6 7 8 9 10 11 12 13 14 15 16 17 18 19 20 21 22 23 24 25 26 27 28 29 30 31 32
000
FTUS43 KDTX 281141
TAFPTK
TAF
KPTK 281141Z 2812/0112 13008KT 4SM -SHRA BR SCT004 OVC045
      TEMPO 2812/2816 2SM -SHRA BR OVC004
     FM281600 16010KT P6SM BKN015 OVC025
     FM010100 18012KT 5SM SHRA BR OVC008
     FM010400 20014KT 3SM SHRA BR OVC004
     FM011100 22014G20KT 5SM -SHRA BKN008 OVC015=

USA.gov is the U.S. government's official web portal to all federal, state and local government web resources and services.